createdAt,value
2022-10-28T00:08:20.772Z,7.61
2022-10-28T00:10:48.395Z,7.57
2022-10-28T00:13:18.800Z,7.51
2022-10-28T00:15:46.396Z,7.56
2022-10-28T00:18:14.005Z,7.58
2022-10-28T00:20:41.630Z,7.54
2022-10-28T00:23:09.216Z,7.44
2022-10-28T00:25:38.301Z,7.39
2022-10-28T00:28:06.272Z,7.35
2022-10-28T00:30:34.377Z,7.27
2022-10-28T00:33:02.008Z,7.21
2022-10-28T00:35:29.603Z,7.19
2022-10-28T00:37:59.864Z,7.13
2022-10-28T00:40:27.564Z,7.17
2022-10-28T00:42:56.524Z,7.14
2022-10-28T00:45:25.076Z,7.11
2022-10-28T00:47:57.038Z,7.04
2022-10-28T00:50:44.438Z,7.06
2022-10-28T00:53:21.241Z,7.01
2022-10-28T00:55:50.059Z,6.99
2022-10-28T00:58:22.503Z,7.00
2022-10-28T01:00:50.219Z,6.96
2022-10-28T01:03:18.304Z,6.91
2022-10-28T01:05:50.831Z,6.92
2022-10-28T01:08:19.239Z,6.92
2022-10-28T01:11:02.378Z,6.92
2022-10-28T01:13:45.172Z,6.97
2022-10-28T01:16:26.657Z,6.89
2022-10-28T01:19:12.961Z,6.88
2022-10-28T01:22:06.443Z,6.88
2022-10-28T01:24:57.360Z,6.82
2022-10-28T01:27:54.970Z,6.77
2022-10-28T01:30:31.101Z,6.78
2022-10-28T01:33:09.073Z,6.77
2022-10-28T01:35:50.766Z,6.74
2022-10-28T01:38:31.937Z,6.77
2022-10-28T01:41:09.302Z,6.76
2022-10-28T01:43:45.262Z,6.76
2022-10-28T01:46:18.050Z,6.71
2022-10-28T01:48:52.215Z,6.67
2022-10-28T01:51:25.547Z,6.68
2022-10-28T01:53:56.644Z,6.67
2022-10-28T01:56:28.697Z,6.63
2022-10-28T01:59:00.080Z,6.63
2022-10-28T02:01:29.782Z,6.59
2022-10-28T02:03:59.528Z,6.59
2022-10-28T02:06:29.472Z,6.58
2022-10-28T02:09:25.994Z,6.56
2022-10-28T02:12:22.885Z,6.60
2022-10-28T02:15:20.490Z,6.69
2022-10-28T02:18:26.095Z,6.68
2022-10-28T02:20:58.773Z,6.68
2022-10-28T02:23:34.831Z,6.63
2022-10-28T02:26:09.962Z,6.63
2022-10-28T02:28:45.227Z,6.64
2022-10-28T02:31:21.658Z,6.60
2022-10-28T02:33:54.456Z,6.58
2022-10-28T02:36:25.590Z,6.55
2022-10-28T02:38:56.410Z,6.57
2022-10-28T02:41:30.460Z,6.57
2022-10-28T02:44:02.886Z,6.57
2022-10-28T02:46:34.651Z,6.53
2022-10-28T02:49:05.731Z,6.50
2022-10-28T02:51:38.146Z,6.49
2022-10-28T02:54:15.029Z,6.52
2022-10-28T02:56:50.219Z,6.56
2022-10-28T02:59:20.851Z,6.52
2022-10-28T03:01:48.596Z,6.53
2022-10-28T03:04:16.382Z,6.52
2022-10-28T03:06:46.901Z,6.55
2022-10-28T03:09:14.525Z,6.56
2022-10-28T03:11:42.237Z,6.57
2022-10-28T03:14:11.969Z,6.55
2022-10-28T03:16:42.754Z,6.51
2022-10-28T03:19:10.386Z,6.48
2022-10-28T03:21:39.973Z,6.53
2022-10-28T03:24:09.218Z,6.47
2022-10-28T03:26:38.545Z,6.46
2022-10-28T03:29:06.205Z,6.43
2022-10-28T03:31:33.815Z,6.43
2022-10-28T03:34:01.464Z,6.42
2022-10-28T03:36:29.073Z,6.38
2022-10-28T03:38:57.130Z,6.35
2022-10-28T03:41:26.107Z,6.31
2022-10-28T03:43:53.756Z,6.31
2022-10-28T03:46:21.403Z,6.25
2022-10-28T03:48:50.987Z,6.25
2022-10-28T03:51:19.080Z,6.23
2022-10-28T03:53:49.242Z,6.29
2022-10-28T03:56:16.828Z,6.29
2022-10-28T03:58:53.845Z,6.33
2022-10-28T04:01:21.607Z,6.33
2022-10-28T04:03:51.783Z,6.32
2022-10-28T04:06:22.220Z,6.28
2022-10-28T04:08:49.860Z,6.34
2022-10-28T04:11:17.462Z,6.28
2022-10-28T04:13:46.448Z,6.33
2022-10-28T04:16:14.043Z,6.25
2022-10-28T04:18:45.299Z,6.25
2022-10-28T04:21:12.989Z,6.19
2022-10-28T04:23:40.606Z,6.16
2022-10-28T04:26:08.208Z,6.14
2022-10-28T04:28:35.829Z,6.10
2022-10-28T04:31:04.990Z,6.07
2022-10-28T04:33:32.621Z,6.19
2022-10-28T04:36:00.218Z,6.22
2022-10-28T04:38:27.836Z,6.16
2022-10-28T04:40:57.934Z,6.11
2022-10-28T04:43:25.759Z,6.07
2022-10-28T04:45:53.571Z,6.07
2022-10-28T04:48:22.737Z,6.07
2022-10-28T04:50:50.952Z,6.03
2022-10-28T04:53:18.578Z,6.02
2022-10-28T04:55:46.186Z,5.98
2022-10-28T04:58:13.797Z,6.02
2022-10-28T05:00:44.607Z,5.98
2022-10-28T05:03:12.205Z,5.95
2022-10-28T05:05:41.459Z,5.92
2022-10-28T05:08:09.092Z,5.93
2022-10-28T05:10:37.677Z,5.89
2022-10-28T05:13:05.293Z,5.88
2022-10-28T05:15:32.944Z,5.85
2022-10-28T05:18:00.568Z,5.85
2022-10-28T05:20:28.292Z,5.87
2022-10-28T05:22:57.620Z,5.97
2022-10-28T05:25:25.971Z,6.02
2022-10-28T05:27:53.843Z,6.01
2022-10-28T05:30:23.046Z,6.00
2022-10-28T05:32:55.481Z,5.97
2022-10-28T05:35:23.151Z,5.99
2022-10-28T05:37:53.648Z,5.96
2022-10-28T05:40:26.015Z,5.94
2022-10-28T05:43:27.250Z,5.93
2022-10-28T05:45:55.201Z,5.92
2022-10-28T05:48:23.079Z,5.96
2022-10-28T05:50:50.883Z,5.92
2022-10-28T05:53:21.222Z,5.87
2022-10-28T05:55:50.254Z,5.91
2022-10-28T05:58:20.148Z,5.94
2022-10-28T06:00:47.735Z,5.99
2022-10-28T06:03:15.370Z,6.06
2022-10-28T06:05:45.339Z,6.10
2022-10-28T06:08:15.653Z,6.12
2022-10-28T06:10:55.340Z,6.15
2022-10-28T06:13:24.569Z,6.20
2022-10-28T06:15:54.121Z,6.20
2022-10-28T06:18:22.305Z,6.26
2022-10-28T06:20:53.642Z,6.28
2022-10-28T06:23:21.515Z,6.35
2022-10-28T06:25:49.800Z,6.44
2022-10-28T06:28:17.482Z,6.49
2022-10-28T06:30:46.474Z,6.56
2022-10-28T06:33:14.113Z,6.68
2022-10-28T06:35:41.939Z,6.75
2022-10-28T06:38:09.724Z,6.82
2022-10-28T06:40:37.612Z,6.92
2022-10-28T06:43:07.417Z,6.98
2022-10-28T06:45:35.332Z,7.05
2022-10-28T06:48:07.474Z,7.12
2022-10-28T06:50:37.365Z,7.20
2022-10-28T06:53:08.109Z,7.32
2022-10-28T06:55:35.741Z,7.37
2022-10-28T06:58:04.344Z,7.44
2022-10-28T07:00:33.194Z,7.55
2022-10-28T07:03:01.274Z,7.63
2022-10-28T07:05:30.707Z,7.74
2022-10-28T07:07:58.386Z,7.89
2022-10-28T07:10:26.065Z,8.01
2022-10-28T07:12:55.973Z,8.10
2022-10-28T07:15:26.971Z,8.20
2022-10-28T07:17:58.549Z,8.34
2022-10-28T07:20:28.138Z,8.44
2022-10-28T07:23:01.215Z,8.54
2022-10-28T07:25:30.158Z,8.65
2022-10-28T07:27:59.977Z,8.82
2022-10-28T07:30:31.422Z,8.98
2022-10-28T07:33:01.077Z,9.15
2022-10-28T07:35:29.271Z,9.34
2022-10-28T07:37:57.274Z,9.58
2022-10-28T07:40:26.910Z,9.80
2022-10-28T07:42:55.149Z,10.02
2022-10-28T07:45:23.127Z,10.22
2022-10-28T07:47:52.822Z,10.45
2022-10-28T07:50:20.719Z,10.72
2022-10-28T07:52:48.413Z,10.98
2022-10-28T07:55:16.093Z,11.27
2022-10-28T07:57:45.102Z,11.54
2022-10-28T08:00:13.313Z,11.88
2022-10-28T08:02:43.086Z,12.23
2022-10-28T08:05:12.975Z,12.63
2022-10-28T08:07:40.686Z,13.10
2022-10-28T08:10:09.329Z,13.50
2022-10-28T08:12:37.090Z,13.97
2022-10-28T08:15:09.471Z,14.48
2022-10-28T08:17:37.144Z,14.97
2022-10-28T08:20:05.482Z,15.54
2022-10-28T08:22:33.161Z,16.09
2022-10-28T08:25:00.874Z,16.57
2022-10-28T08:27:28.531Z,17.02
2022-10-28T08:29:56.204Z,17.39
2022-10-28T08:32:25.332Z,17.55
2022-10-28T08:34:53.043Z,17.73
2022-10-28T08:37:20.838Z,17.87
2022-10-28T08:39:48.622Z,18.12
2022-10-28T08:42:32.098Z,18.40
2022-10-28T08:45:15.947Z,18.58
2022-10-28T08:47:55.211Z,18.62
2022-10-28T08:50:25.900Z,18.65
2022-10-28T08:52:57.997Z,18.69
2022-10-28T08:55:30.087Z,18.73
2022-10-28T08:58:03.251Z,18.80
2022-10-28T09:00:34.502Z,18.76
2022-10-28T09:03:17.316Z,18.84
2022-10-28T09:05:47.894Z,18.90
2022-10-28T09:08:22.498Z,19.01
2022-10-28T09:11:08.630Z,19.08
2022-10-28T09:13:48.725Z,19.08
2022-10-28T09:16:23.493Z,19.18
2022-10-28T09:18:59.986Z,19.15
2022-10-28T09:21:33.839Z,19.20
2022-10-28T09:24:12.326Z,19.17
2022-10-28T09:26:53.662Z,19.20
2022-10-28T09:29:32.729Z,19.29
2022-10-28T09:32:09.299Z,19.43
2022-10-28T09:34:45.671Z,19.78
2022-10-28T09:37:16.504Z,20.34
2022-10-28T09:39:47.985Z,20.81
2022-10-28T09:42:20.182Z,21.22
2022-10-28T09:44:52.679Z,21.60
2022-10-28T09:47:25.884Z,22.52
2022-10-28T09:49:58.066Z,23.38
2022-10-28T09:52:29.922Z,23.70
2022-10-28T09:55:00.442Z,24.04
2022-10-28T09:57:32.227Z,24.60
2022-10-28T10:00:00.859Z,25.27
2022-10-28T10:02:30.905Z,25.73
2022-10-28T10:05:05.145Z,26.15
2022-10-28T10:07:37.061Z,26.27
2022-10-28T10:10:12.450Z,26.29
2022-10-28T10:12:40.019Z,26.48
2022-10-28T10:15:12.887Z,26.96
2022-10-28T10:17:43.843Z,27.41
2022-10-28T10:20:14.493Z,27.33
2022-10-28T10:22:45.983Z,27.24
2022-10-28T10:25:31.046Z,26.68
2022-10-28T10:28:01.871Z,27.04
2022-10-28T10:30:33.601Z,27.36
2022-10-28T10:33:02.814Z,27.72
2022-10-28T10:35:34.270Z,27.79
2022-10-28T10:38:03.784Z,27.73
2022-10-28T10:40:34.443Z,27.58
2022-10-28T10:43:22.337Z,27.40
2022-10-28T10:46:03.742Z,27.46
2022-10-28T10:48:33.886Z,27.57
2022-10-28T10:51:07.453Z,27.47
2022-10-28T10:53:36.496Z,27.30
2022-10-28T10:56:06.771Z,26.79
2022-10-28T10:58:36.650Z,26.74
2022-10-28T11:01:07.299Z,26.10
2022-10-28T11:03:38.333Z,26.01
2022-10-28T11:06:23.163Z,26.12
2022-10-28T11:08:55.719Z,26.38
2022-10-28T11:11:31.984Z,26.29
2022-10-28T11:14:05.453Z,26.43
2022-10-28T11:16:33.118Z,26.38
2022-10-28T11:19:19.743Z,25.97
2022-10-28T11:22:00.938Z,25.80
2022-10-28T11:24:43.098Z,25.84
2022-10-28T11:27:22.926Z,26.21
2022-10-28T11:29:50.902Z,26.44
2022-10-28T11:32:30.251Z,26.84
2022-10-28T11:35:21.263Z,27.08
2022-10-28T11:38:05.080Z,27.49
2022-10-28T11:40:39.739Z,27.52
2022-10-28T11:43:20.621Z,27.69
2022-10-28T11:46:00.027Z,28.01
2022-10-28T11:48:42.642Z,28.11
2022-10-28T11:51:24.272Z,27.99
2022-10-28T11:54:23.816Z,27.22
2022-10-28T11:56:57.039Z,26.57
2022-10-28T11:59:41.464Z,26.07
2022-10-28T12:02:28.855Z,25.74
2022-10-28T12:05:04.287Z,25.69
2022-10-28T12:07:46.139Z,25.96
2022-10-28T12:10:28.269Z,26.45
2022-10-28T12:13:04.911Z,26.52
2022-10-28T12:15:39.262Z,26.55
2022-10-28T12:18:12.460Z,27.04
2022-10-28T12:20:47.257Z,27.68
2022-10-28T12:23:19.081Z,28.17
2022-10-28T12:25:52.665Z,28.64
2022-10-28T12:28:24.903Z,28.96
2022-10-28T12:30:57.323Z,28.49
2022-10-28T12:33:28.716Z,28.06
2022-10-28T12:36:01.778Z,28.09
2022-10-28T12:38:39.036Z,28.16
2022-10-28T12:41:14.608Z,28.28
2022-10-28T12:43:48.458Z,28.57
2022-10-28T12:46:25.893Z,28.76
2022-10-28T12:49:04.707Z,28.67
2022-10-28T12:51:37.419Z,28.39
2022-10-28T12:54:15.799Z,28.57
2022-10-28T12:56:52.827Z,28.38
2022-10-28T12:59:29.970Z,28.23
2022-10-28T13:02:01.115Z,27.89
2022-10-28T13:04:29.605Z,27.84
2022-10-28T13:07:16.415Z,28.02
2022-10-28T13:10:00.523Z,28.04
2022-10-28T13:13:22.230Z,28.06
2022-10-28T13:16:16.106Z,28.33
2022-10-28T13:19:11.203Z,28.36
2022-10-28T13:22:18.145Z,28.45
2022-10-28T13:25:00.023Z,27.90
2022-10-28T13:27:30.737Z,27.54
2022-10-28T13:30:01.838Z,27.18
2022-10-28T13:32:38.270Z,27.26
2022-10-28T13:35:16.258Z,27.47
2022-10-28T13:37:50.035Z,27.88
2022-10-28T13:40:43.138Z,29.86
2022-10-28T13:43:19.958Z,31.93
2022-10-28T13:45:50.326Z,32.53
2022-10-28T13:48:54.510Z,32.27
2022-10-28T13:51:49.336Z,31.86
2022-10-28T13:54:29.213Z,30.98
2022-10-28T13:57:05.320Z,30.60
2022-10-28T13:59:49.255Z,31.94
2022-10-28T14:02:40.049Z,32.24
2022-10-28T14:05:09.398Z,32.29
2022-10-28T14:07:51.709Z,31.91
2022-10-28T14:10:23.995Z,31.42
2022-10-28T14:12:56.473Z,31.77
2022-10-28T14:15:27.862Z,30.59
2022-10-28T14:18:16.089Z,28.64
2022-10-28T14:21:00.708Z,26.92
2022-10-28T14:24:14.180Z,25.69
2022-10-28T14:27:21.252Z,24.94
2022-10-28T14:29:53.774Z,24.48
2022-10-28T14:32:43.786Z,24.09
2022-10-28T14:35:22.811Z,23.77
2022-10-28T14:38:20.055Z,23.40
2022-10-28T14:40:52.154Z,23.11
2022-10-28T14:43:44.351Z,22.84
2022-10-28T14:46:28.004Z,22.64
2022-10-28T14:48:57.894Z,22.43
2022-10-28T14:51:28.172Z,22.31
2022-10-28T14:53:59.822Z,22.13
2022-10-28T14:56:31.170Z,21.96
2022-10-28T14:59:01.817Z,21.80
2022-10-28T15:01:39.870Z,21.68
2022-10-28T15:04:13.338Z,21.53
2022-10-28T15:06:43.131Z,21.42
2022-10-28T15:09:19.384Z,21.29
2022-10-28T15:11:51.129Z,21.11
2022-10-28T15:14:30.231Z,20.91
2022-10-28T15:17:00.009Z,20.76
2022-10-28T15:19:30.356Z,20.54
2022-10-28T15:22:02.362Z,20.31
2022-10-28T15:24:30.145Z,20.13
2022-10-28T15:27:02.640Z,19.94
2022-10-28T15:29:30.546Z,19.76
2022-10-28T15:32:30.641Z,19.53
2022-10-28T15:34:58.891Z,19.34
2022-10-28T15:37:29.739Z,19.23
2022-10-28T15:40:21.398Z,19.02
2022-10-28T15:42:57.486Z,18.89
2022-10-28T15:45:32.838Z,18.70
2022-10-28T15:48:03.628Z,18.70
2022-10-28T15:50:36.315Z,18.52
2022-10-28T15:53:33.595Z,18.38
2022-10-28T15:56:25.915Z,18.19
2022-10-28T15:59:18.435Z,18.15
2022-10-28T16:01:46.364Z,18.00
2022-10-28T16:04:43.147Z,17.91
2022-10-28T16:07:10.980Z,17.79
2022-10-28T16:09:45.236Z,17.67
2022-10-28T16:12:17.951Z,17.51
2022-10-28T16:14:54.802Z,17.36
2022-10-28T16:17:27.076Z,17.11
2022-10-28T16:19:58.611Z,17.00
2022-10-28T16:22:29.327Z,16.89
2022-10-28T16:24:57.858Z,16.82
2022-10-28T16:27:27.602Z,16.73
2022-10-28T16:29:56.825Z,16.59
2022-10-28T16:32:28.583Z,16.54
2022-10-28T16:34:58.613Z,16.47
2022-10-28T16:37:28.101Z,16.35
2022-10-28T16:39:56.056Z,16.34
2022-10-28T16:42:23.983Z,16.35
2022-10-28T16:44:52.028Z,16.32
2022-10-28T16:47:26.002Z,16.17
2022-10-28T16:49:57.226Z,16.07
2022-10-28T16:52:27.347Z,15.98
2022-10-28T16:54:55.506Z,15.84
2022-10-28T16:59:56.577Z,15.64
2022-10-28T17:02:29.403Z,15.55
2022-10-28T17:04:58.031Z,15.47
2022-10-28T17:07:28.789Z,15.34
2022-10-28T17:09:56.865Z,15.28
2022-10-28T17:12:26.400Z,15.17
2022-10-28T17:14:54.375Z,15.10
2022-10-28T17:17:22.120Z,15.03
2022-10-28T17:19:51.172Z,14.96
2022-10-28T17:22:18.857Z,14.89
2022-10-28T17:24:46.857Z,14.73
2022-10-28T17:27:14.668Z,14.65
2022-10-28T17:29:45.985Z,14.58
2022-10-28T17:32:13.831Z,14.44
2022-10-28T17:34:41.704Z,14.38
2022-10-28T17:37:10.739Z,14.29
2022-10-28T17:39:38.817Z,14.19
2022-10-28T17:42:06.599Z,14.18
2022-10-28T17:44:34.259Z,14.12
2022-10-28T17:47:02.180Z,13.98
2022-10-28T17:49:29.974Z,13.87
2022-10-28T17:51:57.642Z,13.83
2022-10-28T17:54:26.718Z,13.76
2022-10-28T17:56:55.908Z,13.67
2022-10-28T17:59:24.964Z,13.61
2022-10-28T18:01:52.748Z,13.64
2022-10-28T18:04:26.082Z,13.62
2022-10-28T18:06:54.815Z,13.60
2022-10-28T18:09:22.912Z,13.59
2022-10-28T18:11:52.035Z,13.52
2022-10-28T18:14:20.173Z,13.48
2022-10-28T18:16:50.138Z,13.47
2022-10-28T18:19:18.008Z,13.41
2022-10-28T18:21:48.502Z,13.41
2022-10-28T18:24:17.699Z,13.40
2022-10-28T18:26:46.235Z,13.34
2022-10-28T18:29:15.276Z,13.34
2022-10-28T18:31:44.262Z,13.32
2022-10-28T18:34:12.285Z,13.26
2022-10-28T18:36:40.034Z,13.17
2022-10-28T18:39:08.956Z,13.16
2022-10-28T18:41:41.566Z,13.09
2022-10-28T18:44:14.054Z,13.13
2022-10-28T18:46:46.119Z,13.10
2022-10-28T18:49:13.881Z,13.17
2022-10-28T18:51:43.763Z,13.20
2022-10-28T18:54:11.525Z,13.15
2022-10-28T18:56:39.204Z,13.22
2022-10-28T18:59:09.978Z,13.24
2022-10-28T19:01:38.078Z,13.19
2022-10-28T19:04:07.389Z,13.22
2022-10-28T19:06:35.299Z,13.26
2022-10-28T19:09:05.260Z,13.27
2022-10-28T19:11:34.629Z,13.32
2022-10-28T19:14:04.446Z,13.28
2022-10-28T19:16:34.116Z,13.27
2022-10-28T19:19:04.620Z,13.24
2022-10-28T19:21:34.152Z,13.23
2022-10-28T19:24:05.343Z,13.27
2022-10-28T19:26:39.416Z,13.33
2022-10-28T19:29:09.130Z,13.48
2022-10-28T19:31:38.977Z,13.50
2022-10-28T19:34:06.728Z,13.52
2022-10-28T19:36:36.043Z,13.63
2022-10-28T19:39:04.192Z,13.66
2022-10-28T19:41:32.070Z,13.63
2022-10-28T19:44:01.285Z,13.59
2022-10-28T19:46:31.157Z,13.83
2022-10-28T19:48:59.829Z,13.98
2022-10-28T19:51:29.488Z,14.21
2022-10-28T19:54:00.033Z,14.36
2022-10-28T19:56:32.491Z,14.57
2022-10-28T19:59:02.518Z,14.68
2022-10-28T20:01:32.455Z,14.64
2022-10-28T20:04:00.284Z,14.73
2022-10-28T20:06:31.602Z,14.75
2022-10-28T20:09:00.651Z,14.61
2022-10-28T20:11:31.609Z,14.43
2022-10-28T20:14:01.716Z,14.39
2022-10-28T20:16:29.907Z,14.42
2022-10-28T20:18:58.708Z,14.49
2022-10-28T20:21:28.587Z,14.40
2022-10-28T20:23:57.840Z,14.28
2022-10-28T20:26:29.801Z,14.18
2022-10-28T20:28:58.665Z,14.08
2022-10-28T20:31:29.415Z,14.02
2022-10-28T20:33:58.758Z,14.05
2022-10-28T20:36:28.516Z,13.97
2022-10-28T20:38:57.221Z,13.96
2022-10-28T20:41:28.152Z,13.92
2022-10-28T20:43:56.519Z,13.89
2022-10-28T20:46:25.691Z,13.81
2022-10-28T20:48:54.800Z,13.74
2022-10-28T20:51:23.358Z,13.71
2022-10-28T20:53:51.385Z,13.69
2022-10-28T20:56:20.681Z,13.67
2022-10-28T20:58:49.794Z,13.66
2022-10-28T21:01:22.720Z,13.58
2022-10-28T21:03:54.110Z,13.55
2022-10-28T21:06:22.195Z,13.51
2022-10-28T21:08:49.888Z,13.47
2022-10-28T21:11:20.071Z,13.37
2022-10-28T21:13:52.977Z,13.33
2022-10-28T21:16:23.956Z,13.26
2022-10-28T21:18:55.397Z,13.23
2022-10-28T21:21:25.085Z,13.28
2022-10-28T21:23:52.888Z,13.19
2022-10-28T21:26:20.990Z,13.16
2022-10-28T21:28:51.776Z,13.09
2022-10-28T21:31:20.364Z,13.06
2022-10-28T21:36:17.592Z,13.02
2022-10-28T21:38:45.855Z,13.03
2022-10-28T21:41:15.724Z,13.03
2022-10-28T21:43:45.072Z,13.16
2022-10-28T21:46:17.446Z,13.43
2022-10-28T21:48:45.438Z,13.77
2022-10-28T21:51:17.470Z,14.13
2022-10-28T21:53:46.052Z,14.49
2022-10-28T21:56:18.055Z,14.83
2022-10-28T22:01:19.028Z,15.37
2022-10-28T22:03:46.969Z,15.55
2022-10-28T22:06:15.166Z,15.70
2022-10-28T22:08:42.862Z,15.82
2022-10-28T22:11:17.166Z,15.94
2022-10-28T22:13:45.181Z,16.02
2022-10-28T22:16:14.686Z,16.06
2022-10-28T22:18:43.904Z,16.10
2022-10-28T22:21:15.340Z,16.04
2022-10-28T22:23:43.595Z,16.01
2022-10-28T22:26:16.116Z,15.91
2022-10-28T22:28:44.104Z,15.85
2022-10-28T22:31:14.640Z,15.61
2022-10-28T22:33:44.269Z,15.38
2022-10-28T22:36:16.335Z,15.20
2022-10-28T22:38:44.317Z,14.94
2022-10-28T22:41:14.528Z,14.65
2022-10-28T22:43:43.092Z,14.32
2022-10-28T22:46:11.798Z,14.04
2022-10-28T22:48:39.654Z,13.73
2022-10-28T22:51:09.574Z,13.52
2022-10-28T22:53:38.808Z,13.39
2022-10-28T22:56:08.051Z,13.17
2022-10-28T23:04:39.939Z,12.59
2022-10-28T23:07:07.603Z,12.49
2022-10-28T23:09:35.217Z,12.41
2022-10-28T23:12:02.834Z,12.32
2022-10-28T23:14:30.459Z,12.28
2022-10-28T23:16:58.130Z,12.18
2022-10-28T23:19:25.703Z,12.19
2022-10-28T23:21:54.693Z,12.08
2022-10-28T23:24:23.971Z,12.06
2022-10-28T23:26:51.650Z,12.04
2022-10-28T23:29:19.308Z,12.02
2022-10-28T23:31:46.925Z,12.07
2022-10-28T23:34:16.663Z,12.18
2022-10-28T23:36:44.305Z,12.25
2022-10-28T23:39:13.342Z,12.27
2022-10-28T23:41:40.977Z,12.31
2022-10-28T23:44:10.758Z,12.39
2022-10-28T23:46:38.366Z,12.39
2022-10-28T23:49:05.973Z,12.35
2022-10-28T23:51:33.746Z,12.26
2022-10-28T23:54:01.393Z,12.18
2022-10-28T23:56:30.602Z,12.17
2022-10-28T23:58:58.373Z,12.32
